地図

経路データ

SID SEASON NUMBER BASIN SUBBASIN NAME ISO_TIME NATURE LAT LON WMO_WIND WMO_PRES WMO_AGENCY TRACK_TYPE DIST2LAND LANDFALL IFLAG USA_AGENCY USA_ATCF_ID USA_LAT USA_LON USA_RECORD USA_STATUS USA_WIND USA_PRES USA_SSHS USA_R34_NE USA_R34_SE USA_R34_SW USA_R34_NW USA_R50_NE USA_R50_SE USA_R50_SW USA_R50_NW USA_R64_NE USA_R64_SE USA_R64_SW USA_R64_NW USA_POCI USA_ROCI USA_RMW USA_EYE TOKYO_LAT TOKYO_LON TOKYO_GRADE TOKYO_WIND TOKYO_PRES TOKYO_R50_DIR TOKYO_R50_LONG TOKYO_R50_SHORT TOKYO_R30_DIR TOKYO_R30_LONG TOKYO_R30_SHORT TOKYO_LAND CMA_LAT CMA_LON CMA_CAT CMA_WIND CMA_PRES HKO_LAT HKO_LON HKO_CAT HKO_WIND HKO_PRES NEWDELHI_LAT NEWDELHI_LON NEWDELHI_GRADE NEWDELHI_WIND NEWDELHI_PRES NEWDELHI_CI NEWDELHI_DP NEWDELHI_POCI REUNION_LAT REUNION_LON REUNION_TYPE REUNION_WIND REUNION_PRES REUNION_TNUM REUNION_CI REUNION_RMW REUNION_R34_NE REUNION_R34_SE REUNION_R34_SW REUNION_R34_NW REUNION_R50_NE REUNION_R50_SE REUNION_R50_SW REUNION_R50_NW REUNION_R64_NE REUNION_R64_SE REUNION_R64_SW REUNION_R64_NW BOM_LAT BOM_LON BOM_TYPE BOM_WIND BOM_PRES BOM_TNUM BOM_CI BOM_RMW BOM_R34_NE BOM_R34_SE BOM_R34_SW BOM_R34_NW BOM_R50_NE BOM_R50_SE BOM_R50_SW BOM_R50_NW BOM_R64_NE BOM_R64_SE BOM_R64_SW BOM_R64_NW BOM_ROCI BOM_POCI BOM_EYE BOM_POS_METHOD BOM_PRES_METHOD NADI_LAT NADI_LON NADI_CAT NADI_WIND NADI_PRES WELLINGTON_LAT WELLINGTON_LON WELLINGTON_WIND WELLINGTON_PRES DS824_LAT DS824_LON DS824_STAGE DS824_WIND DS824_PRES TD9636_LAT TD9636_LON TD9636_STAGE TD9636_WIND TD9636_PRES TD9635_LAT TD9635_LON TD9635_WIND TD9635_PRES TD9635_ROCI NEUMANN_LAT NEUMANN_LON NEUMANN_CLASS NEUMANN_WIND NEUMANN_PRES MLC_LAT MLC_LON MLC_CLASS MLC_WIND MLC_PRES USA_GUST BOM_GUST BOM_GUST_PER REUNION_GUST REUNION_GUST_PER USA_SEAHGT USA_SEARAD_NE USA_SEARAD_SE USA_SEARAD_SW USA_SEARAD_NW STORM_SPEED STORM_DIR
1944210N15134 1944 41 WP MM NOT_NAMED 1944-07-28 09:00:00 NR 14.8000 133.500 main 912 912 __________O___ -1 14.8000 133.500 4 53 344
1944210N15134 1944 41 WP MM NOT_NAMED 1944-07-28 12:00:00 NR 17.3141 132.738 main 961 961 __________P___ -1 17.3141 132.738 4 51 344
1944210N15134 1944 41 WP MM NOT_NAMED 1944-07-28 15:00:00 NR 19.6660 131.999 main 1029 1008 __________P___ -1 19.6660 131.999 4 46 343
1944210N15134 1944 41 WP MM NOT_NAMED 1944-07-28 18:00:00 NR 21.6831 131.335 main 1009 882 __________P___ -1 21.6831 131.335 4 37 342
1944210N15134 1944 41 WP MM NOT_NAMED 1944-07-28 21:00:00 NR 23.2000 130.800 main 871 770 __________O___ -1 23.2000 130.800 4 26 341
1944210N15134 1944 41 WP MM NOT_NAMED 1944-07-29 00:00:00 NR 24.1225 130.434 main 771 716 __________P___ -1 24.1225 130.434 4 15 339
1944210N15134 1944 41 WP MM NOT_NAMED 1944-07-29 03:00:00 NR 24.6140 130.202 main 716 683 __________P___ -1 24.6140 130.202 4 9 335
1944210N15134 1944 41 WP MM NOT_NAMED 1944-07-29 06:00:00 NR 24.8990 130.044 main 684 652 __________P___ -1 24.8990 130.044 4 6 335
1944210N15134 1944 41 WP MM NOT_NAMED 1944-07-29 09:00:00 NR 25.2000 129.900 main 652 577 __________O___ -1 25.2000 129.900 4 11 341
1944210N15134 1944 41 WP MM NOT_NAMED 1944-07-29 12:00:00 NR 25.9156 129.660 main 577 507 __________P___ -1 25.9156 129.660 4 15 344
1944210N15134 1944 41 WP MM NOT_NAMED 1944-07-29 15:00:00 NR 26.6750 129.422 main 496 427 __________P___ -1 26.6750 129.422 4 15 344
1944210N15134 1944 41 WP MM NOT_NAMED 1944-07-29 18:00:00 NR 27.3970 129.198 main 427 372 __________P___ -1 27.3970 129.198 4 14 344
1944210N15134 1944 41 WP MM NOT_NAMED 1944-07-29 21:00:00 NR 28.0000 129.000 main 372 336 __________O___ -1 28.0000 129.000 4 10 344
1944210N15134 1944 41 WP MM NOT_NAMED 1944-07-30 00:00:00 NR 28.3909 128.881 main 336 319 __________P___ -1 28.3909 128.881 4 7 344
1944210N15134 1944 41 WP MM NOT_NAMED 1944-07-30 03:00:00 NR 28.6565 128.785 main 309 304 __________P___ -1 28.6565 128.785 4 5 338
1944210N15134 1944 41 WP MM NOT_NAMED 1944-07-30 06:00:00 NR 28.8439 128.672 main 304 289 __________P___ -1 28.8439 128.672 4 4 324
1944210N15134 1944 41 WP MM NOT_NAMED 1944-07-30 09:00:00 NR 29.0000 128.500 main 294 288 __________O___ -1 29.0000 128.500 4 6 312
1944210N15134 1944 41 WP MM NOT_NAMED 1944-07-30 12:00:00 NR 29.2216 128.195 main 294 291 __________P___ -1 29.2216 128.195 4 7 306
1944210N15134 1944 41 WP MM NOT_NAMED 1944-07-30 15:00:00 NR 29.4185 127.831 main 305 305 __________P___ -1 29.4185 127.831 4 7 299
1944210N15134 1944 41 WP MM NOT_NAMED 1944-07-30 18:00:00 NR 29.5810 127.451 main 314 314 __________P___ -1 29.5810 127.451 4 7 294
1944210N15134 1944 41 WP MM NOT_NAMED 1944-07-30 21:00:00 NR 29.7000 127.100 main 340 340 __________O___ -1 29.7000 127.100 4 6 290
1944210N15134 1944 41 WP MM NOT_NAMED 1944-07-31 00:00:00 NR 29.7675 126.850 main 352 352 __________P___ -1 29.7675 126.850 4 4 283
1944210N15134 1944 41 WP MM NOT_NAMED 1944-07-31 03:00:00 NR 29.7941 126.634 main 378 378 __________P___ -1 29.7941 126.634 4 4 275
1944210N15134 1944 41 WP MM NOT_NAMED 1944-07-31 06:00:00 NR 29.7988 126.426 main 379 379 __________P___ -1 29.7988 126.426 4 4 271
1944210N15134 1944 41 WP MM NOT_NAMED 1944-07-31 09:00:00 NR 29.8000 126.200 main 379 379 __________O___ -1 29.8000 126.200 4 5 269
1944210N15134 1944 41 WP MM NOT_NAMED 1944-07-31 12:00:00 NR 29.7887 125.901 main 381 354 __________P___ -1 29.7887 125.901 4 5 268
1944210N15134 1944 41 WP MM NOT_NAMED 1944-07-31 15:00:00 NR 29.7829 125.584 main 354 325 __________P___ -1 29.7829 125.584 4 5 272
1944210N15134 1944 41 WP MM NOT_NAMED 1944-07-31 18:00:00 NR 29.8106 125.276 main 325 298 __________P___ -1 29.8106 125.276 4 5 283
1944210N15134 1944 41 WP MM NOT_NAMED 1944-07-31 21:00:00 NR 29.9000 125.000 main 298 280 __________O___ -1 29.9000 125.000 4 5 300
1944210N15134 1944 41 WP MM NOT_NAMED 1944-08-01 00:00:00 NR 30.0648 124.769 main 281 263 __________P___ -1 30.0648 124.769 4 5 317
1944210N15134 1944 41 WP MM NOT_NAMED 1944-08-01 03:00:00 NR 30.2948 124.576 main 265 240 __________P___ -1 30.2948 124.576 4 6 330
1944210N15134 1944 41 WP MM NOT_NAMED 1944-08-01 06:00:00 NR 30.5774 124.419 main 240 228 __________P___ -1 30.5774 124.419 4 7 339
1944210N15134 1944 41 WP MM NOT_NAMED 1944-08-01 09:00:00 NR 30.9000 124.300 main 228 220 __________O___ -1 30.9000 124.300 4 7 345
1944210N15134 1944 41 WP MM NOT_NAMED 1944-08-01 12:00:00 NR 31.2227 124.213 main 221 217 __________P___ -1 31.2227 124.213 4 7 350
1944210N15134 1944 41 WP MM NOT_NAMED 1944-08-01 15:00:00 NR 31.5824 124.162 main 217 207 __________P___ -1 31.5824 124.162 4 8 355
1944210N15134 1944 41 WP MM NOT_NAMED 1944-08-01 18:00:00 NR 31.9759 124.129 main 210 210 __________P___ -1 31.9759 124.129 4 8 356
1944210N15134 1944 41 WP MM NOT_NAMED 1944-08-01 21:00:00 NR 32.4000 124.100 main 220 206 __________O___ -1 32.4000 124.100 4 9 354
1944210N15134 1944 41 WP MM NOT_NAMED 1944-08-02 00:00:00 NR 32.8381 124.015 main 212 204 __________P___ -1 32.8381 124.015 4 9 351
1944210N15134 1944 41 WP MM NOT_NAMED 1944-08-02 03:00:00 NR 33.3049 123.935 main 213 213 __________P___ -1 33.3049 123.935 4 10 354
1944210N15134 1944 41 WP MM NOT_NAMED 1944-08-02 06:00:00 NR 33.7943 123.887 main 219 219 __________P___ -1 33.7943 123.887 4 10 357
1944210N15134 1944 41 WP MM NOT_NAMED 1944-08-02 09:00:00 NR 34.3000 123.900 main 222 213 __________O___ -1 34.3000 123.900 4 9 359
1944210N15134 1944 41 WP MM NOT_NAMED 1944-08-02 12:00:00 NR 34.7261 123.872 main 213 208 __________P___ -1 34.7261 123.872 4 9 2
1944210N15134 1944 41 WP MM NOT_NAMED 1944-08-02 15:00:00 NR 35.1791 123.925 main 208 195 __________P___ -1 35.1791 123.925 4 10 13
1944210N15134 1944 41 WP MM NOT_NAMED 1944-08-02 18:00:00 NR 35.7176 124.141 main 195 137 __________P___ -1 35.7176 124.141 4 13 24
1944210N15134 1944 41 WP MM NOT_NAMED 1944-08-02 21:00:00 NR 36.4000 124.600 main 137 55 __________O___ -1 36.4000 124.600 4 19 34
1944210N15134 1944 41 WP MM NOT_NAMED 1944-08-03 00:00:00 NR 37.2600 125.445 main 45 0 __________P___ -1 37.2600 125.445 4 24 40
1944210N15134 1944 41 WP MM NOT_NAMED 1944-08-03 03:00:00 NR 38.2583 126.548 main 0 0 __________P___ -1 38.2583 126.548 4 28 41
1944210N15134 1944 41 WP MM NOT_NAMED 1944-08-03 06:00:00 NR 39.3511 127.779 main 20 8 __________P___ -1 39.3511 127.779 4 29 40
1944210N15134 1944 41 WP MM NOT_NAMED 1944-08-03 09:00:00 NR 40.5000 129.000 main 0 0 __________O___ -1 40.5000 129.000 4 29 33
1944210N15134 1944 41 WP MM NOT_NAMED 1944-08-03 12:00:00 NR 41.8035 129.900 main 0 0 __________P___ -1 41.8035 129.900 4 30 27
1944210N15134 1944 41 WP MM NOT_NAMED 1944-08-03 15:00:00 NR 43.1361 130.778 main 0 0 __________P___ -1 43.1361 130.778 4 29 28
1944210N15134 1944 41 WP MM NOT_NAMED 1944-08-03 18:00:00 NR 44.3515 131.743 main 0 0 __________P___ -1 44.3515 131.743 4 26 35
1944210N15134 1944 41 WP MM NOT_NAMED 1944-08-03 21:00:00 NR 45.3000 132.900 main 0 0 __________O___ -1 45.3000 132.900 4 23 52
1944210N15134 1944 41 WP MM NOT_NAMED 1944-08-04 00:00:00 NR 45.7746 134.359 main 0 0 __________P___ -1 45.7746 134.359 4 23 73
1944210N15134 1944 41 WP MM NOT_NAMED 1944-08-04 03:00:00 NR 45.9649 135.991 main 0 0 __________P___ -1 45.9649 135.991 4 23 85
1944210N15134 1944 41 WP MM NOT_NAMED 1944-08-04 06:00:00 NR 45.9971 137.724 main 0 0 __________P___ -1 45.9971 137.724 4 24 89
1944210N15134 1944 41 WP MM NOT_NAMED 1944-08-04 09:00:00 NR 46.0000 139.500 main 109 50 __________O___ -1 46.0000 139.500 4 25 85
1944210N15134 1944 41 WP MM NOT_NAMED 1944-08-04 12:00:00 NR 46.2156 141.364 main 44 0 __________P___ -1 46.2156 141.364 4 26 81
1944210N15134 1944 41 WP MM NOT_NAMED 1944-08-04 15:00:00 NR 46.4148 143.258 main 7 0 __________P___ -1 46.4148 143.258 4 26 82
1944210N15134 1944 41 WP MM NOT_NAMED 1944-08-04 18:00:00 NR 46.5549 145.074 main 121 121 __________P___ -1 46.5549 145.074 4 24 86
1944210N15134 1944 41 WP MM NOT_NAMED 1944-08-04 21:00:00 NR 46.6000 146.700 main 171 122 __________O___ -1 46.6000 146.700 4 20 95
1944210N15134 1944 41 WP MM NOT_NAMED 1944-08-05 00:00:00 NR 46.3855 148.011 main 120 50 __________P___ -1 46.3855 148.011 4 17 106
1944210N15134 1944 41 WP MM NOT_NAMED 1944-08-05 03:00:00 NR 46.1116 149.107 main 50 0 __________P___ -1 46.1116 149.107 4 15 108
1944210N15134 1944 41 WP MM NOT_NAMED 1944-08-05 06:00:00 NR 45.9077 150.074 main 0 0 __________P___ -1 45.9077 150.074 4 13 99
1944210N15134 1944 41 WP MM NOT_NAMED 1944-08-05 09:00:00 NR 45.9000 151.000 main 51 51 __________O___ -1 45.9000 151.000 4 13 78
1944210N15134 1944 41 WP MM NOT_NAMED 1944-08-05 12:00:00 NR 46.1779 151.967 main 123 123 __________P___ -1 46.1779 151.967 4 16 60
1944210N15134 1944 41 WP MM NOT_NAMED 1944-08-05 15:00:00 NR 46.6926 152.992 main 209 209 __________P___ -1 46.6926 152.992 4 19 51
1944210N15134 1944 41 WP MM NOT_NAMED 1944-08-05 18:00:00 NR 47.3610 154.073 main 303 212 __________P___ -1 47.3610 154.073 4 20 47
1944210N15134 1944 41 WP MM NOT_NAMED 1944-08-05 21:00:00 NR 48.1000 155.200 main 211 __________O___ -1 48.1000 155.200 4 21 46

デジタル台風データ・検索

IBTrACS Databaseについて

本データベースは、米国NOAAが公開する1842年以降の世界の熱帯低気圧のベストトラックデータアーカイブInternational Best Track Archive for Climate Stewardship (IBTrACS)を、ウェブで閲覧しやすい形式に変換したものです。

最終更新日:2021-11-26